sensor_id;sensor_type;location;lat;lon;timestamp;pressure;altitude;pressure_sealevel;temperature;humidity
41383;BME280;27971;53.902;9.118;2023-02-11T00:05:06;102875.0;;;24.3;22.38
41383;BME280;27971;53.902;9.118;2023-02-11T00:07:08;102877.0;;;24.26;22.3
41383;BME280;27971;53.902;9.118;2023-02-11T00:09:11;102876.0;;;24.3;22.12
41383;BME280;27971;53.902;9.118;2023-02-11T00:11:16;102871.0;;;24.42;21.97
41383;BME280;27971;53.902;9.118;2023-02-11T00:13:17;102874.0;;;25.32;22.04
41383;BME280;27971;53.902;9.118;2023-02-11T00:15:19;102874.0;;;25.33;22.13
41383;BME280;27971;53.902;9.118;2023-02-11T00:17:21;102876.0;;;25.33;22.25
41383;BME280;27971;53.902;9.118;2023-02-11T00:19:24;102869.0;;;25.23;22.36
41383;BME280;27971;53.902;9.118;2023-02-11T00:21:28;102860.99999999999;;;25.27;22.36
41383;BME280;27971;53.902;9.118;2023-02-11T00:23:30;102851.0;;;25.09;22.57
41383;BME280;27971;53.902;9.118;2023-02-11T00:25:33;102843.0;;;25.26;22.37
41383;BME280;27971;53.902;9.118;2023-02-11T00:27:36;102838.00000000001;;;25.12;22.49
41383;BME280;27971;53.902;9.118;2023-02-11T00:29:38;102831.0;;;25.25;22.36
41383;BME280;27971;53.902;9.118;2023-02-11T00:31:40;102830.0;;;25.08;22.51
41383;BME280;27971;53.902;9.118;2023-02-11T00:33:44;102823.0;;;24.95;22.59
41383;BME280;27971;53.902;9.118;2023-02-11T00:35:46;102822.0;;;24.91;22.67
41383;BME280;27971;53.902;9.118;2023-02-11T00:37:52;102817.0;;;25.0;22.54
41383;BME280;27971;53.902;9.118;2023-02-11T00:39:52;102813.00000000001;;;24.83;22.69
41383;BME280;27971;53.902;9.118;2023-02-11T00:41:54;102811.99999999999;;;24.71;22.83
41383;BME280;27971;53.902;9.118;2023-02-11T00:43:57;102810.99999999999;;;24.63;22.86
41383;BME280;27971;53.902;9.118;2023-02-11T00:46:00;102804.0;;;24.7;22.8
41383;BME280;27971;53.902;9.118;2023-02-11T00:48:03;102804.0;;;24.39;23.0
41383;BME280;27971;53.902;9.118;2023-02-11T00:50:06;102802.0;;;24.41;23.05
41383;BME280;27971;53.902;9.118;2023-02-11T00:52:08;102799.0;;;24.4;23.08
41383;BME280;27971;53.902;9.118;2023-02-11T00:54:10;102798.0;;;24.38;23.14
41383;BME280;27971;53.902;9.118;2023-02-11T00:56:12;102800.0;;;24.15;23.34
41383;BME280;27971;53.902;9.118;2023-02-11T00:58:15;102802.0;;;24.13;23.33
41383;BME280;27971;53.902;9.118;2023-02-11T01:00:17;102806.0;;;24.09;23.37
41383;BME280;27971;53.902;9.118;2023-02-11T01:02:19;102809.99999999999;;;24.02;23.39
41383;BME280;27971;53.902;9.118;2023-02-11T01:04:22;102816.00000000001;;;24.12;23.38
41383;BME280;27971;53.902;9.118;2023-02-11T01:06:25;102820.0;;;24.13;23.34
41383;BME280;27971;53.902;9.118;2023-02-11T01:08:27;102822.0;;;23.94;23.48
41383;BME280;27971;53.902;9.118;2023-02-11T01:10:30;102822.0;;;24.15;23.47
41383;BME280;27971;53.902;9.118;2023-02-11T01:12:32;102825.0;;;24.07;23.53
41383;BME280;27971;53.902;9.118;2023-02-11T01:14:34;102822.0;;;23.9;23.67
41383;BME280;27971;53.902;9.118;2023-02-11T01:16:36;102820.0;;;23.91;23.67
41383;BME280;27971;53.902;9.118;2023-02-11T01:18:40;102817.0;;;24.11;23.58
41383;BME280;27971;53.902;9.118;2023-02-11T01:20:42;102811.99999999999;;;24.08;23.56
41383;BME280;27971;53.902;9.118;2023-02-11T01:22:45;102815.00000000001;;;24.03;23.63
41383;BME280;27971;53.902;9.118;2023-02-11T01:24:47;102822.0;;;23.85;23.73
41383;BME280;27971;53.902;9.118;2023-02-11T01:26:49;102826.0;;;23.89;23.7
41383;BME280;27971;53.902;9.118;2023-02-11T01:28:52;102827.0;;;23.9;23.72
41383;BME280;27971;53.902;9.118;2023-02-11T01:30:55;102826.0;;;23.81;23.7
41383;BME280;27971;53.902;9.118;2023-02-11T01:32:57;102826.0;;;23.83;23.8
41383;BME280;27971;53.902;9.118;2023-02-11T01:35:00;102824.0;;;23.81;23.83
41383;BME280;27971;53.902;9.118;2023-02-11T01:37:02;102821.0;;;23.87;23.73
41383;BME280;27971;53.902;9.118;2023-02-11T01:39:04;102824.0;;;23.67;23.85
41383;BME280;27971;53.902;9.118;2023-02-11T01:41:10;102817.0;;;23.71;23.84
41383;BME280;27971;53.902;9.118;2023-02-11T01:43:10;102810.99999999999;;;23.9;23.79
41383;BME280;27971;53.902;9.118;2023-02-11T01:46:28;102809.99999999999;;;23.63;23.85
41383;BME280;27971;53.902;9.118;2023-02-11T01:47:14;102808.99999999999;;;23.92;24.16
41383;BME280;27971;53.902;9.118;2023-02-11T01:49:19;102814.00000000001;;;23.3;24.29
41383;BME280;27971;53.902;9.118;2023-02-11T01:51:23;102819.0;;;23.36;24.21
41383;BME280;27971;53.902;9.118;2023-02-11T01:53:22;102820.0;;;23.48;24.06
41383;BME280;27971;53.902;9.118;2023-02-11T01:55:25;102827.0;;;23.24;24.25
41383;BME280;27971;53.902;9.118;2023-02-11T01:57:30;102824.0;;;23.48;24.02
41383;BME280;27971;53.902;9.118;2023-02-11T01:59:42;102821.0;;;23.45;24.1
41383;BME280;27971;53.902;9.118;2023-02-11T02:01:34;102822.0;;;23.42;24.18
41383;BME280;27971;53.902;9.118;2023-02-11T02:03:36;102826.0;;;23.3;24.23
41383;BME280;27971;53.902;9.118;2023-02-11T02:05:42;102825.0;;;23.64;24.02
41383;BME280;27971;53.902;9.118;2023-02-11T02:07:46;102827.0;;;23.5;24.05
41383;BME280;27971;53.902;9.118;2023-02-11T02:09:50;102825.0;;;23.42;24.19
41383;BME280;27971;53.902;9.118;2023-02-11T02:11:48;102822.0;;;23.22;24.3
41383;BME280;27971;53.902;9.118;2023-02-11T02:13:50;102820.0;;;23.15;24.35
41383;BME280;27971;53.902;9.118;2023-02-11T02:15:55;102818.0;;;23.49;24.1
41383;BME280;27971;53.902;9.118;2023-02-11T02:17:59;102816.00000000001;;;23.36;24.22
41383;BME280;27971;53.902;9.118;2023-02-11T02:20:13;102807.0;;;23.11;24.38
41383;BME280;27971;53.902;9.118;2023-02-11T02:22:34;102800.0;;;23.22;24.48
41383;BME280;27971;53.902;9.118;2023-02-11T02:24:47;102801.0;;;23.42;24.47
41383;BME280;27971;53.902;9.118;2023-02-11T02:28:25;102797.0;;;24.18;24.81
41383;BME280;27971;53.902;9.118;2023-02-11T02:32:42;102794.0;;;23.35;24.82
41383;BME280;27971;53.902;9.118;2023-02-11T02:32:55;102783.99999999999;;;24.03;24.87
41383;BME280;27971;53.902;9.118;2023-02-11T02:34:57;102785.99999999999;;;23.05;25.09
41383;BME280;27971;53.902;9.118;2023-02-11T02:36:58;102783.0;;;22.89;24.99
41383;BME280;27971;53.902;9.118;2023-02-11T02:39:03;102778.0;;;22.97;24.75
41383;BME280;27971;53.902;9.118;2023-02-11T02:41:02;102779.0;;;22.72;24.89
41383;BME280;27971;53.902;9.118;2023-02-11T02:43:02;102777.0;;;22.89;24.82
41383;BME280;27971;53.902;9.118;2023-02-11T02:45:07;102774.0;;;22.91;24.63
41383;BME280;27971;53.902;9.118;2023-02-11T02:47:08;102769.0;;;23.07;24.48
41383;BME280;27971;53.902;9.118;2023-02-11T02:49:12;102765.00000000001;;;23.08;24.42
41383;BME280;27971;53.902;9.118;2023-02-11T02:51:25;102765.00000000001;;;23.08;24.41
41383;BME280;27971;53.902;9.118;2023-02-11T02:53:23;102767.0;;;23.23;24.5
41383;BME280;27971;53.902;9.118;2023-02-11T02:55:30;102769.0;;;23.01;24.56
41383;BME280;27971;53.902;9.118;2023-02-11T02:57:30;102768.0;;;23.07;24.57
41383;BME280;27971;53.902;9.118;2023-02-11T02:59:33;102767.0;;;23.01;24.62
41383;BME280;27971;53.902;9.118;2023-02-11T03:01:34;102771.0;;;23.09;24.55
41383;BME280;27971;53.902;9.118;2023-02-11T03:03:37;102767.0;;;22.94;24.64
41383;BME280;27971;53.902;9.118;2023-02-11T03:05:42;102765.00000000001;;;22.88;24.74
41383;BME280;27971;53.902;9.118;2023-02-11T03:07:42;102764.00000000001;;;22.94;24.69
41383;BME280;27971;53.902;9.118;2023-02-11T03:09:44;102766.00000000001;;;22.99;24.56
41383;BME280;27971;53.902;9.118;2023-02-11T03:11:43;102766.00000000001;;;22.92;24.55
41383;BME280;27971;53.902;9.118;2023-02-11T03:13:47;102764.00000000001;;;22.67;24.64
41383;BME280;27971;53.902;9.118;2023-02-11T03:15:52;102759.99999999999;;;22.82;24.57
41383;BME280;27971;53.902;9.118;2023-02-11T03:17:54;102752.0;;;22.91;24.5
41383;BME280;27971;53.902;9.118;2023-02-11T03:19:56;102746.0;;;22.93;24.48
41383;BME280;27971;53.902;9.118;2023-02-11T03:21:59;102738.00000000001;;;23.0;24.38
41383;BME280;27971;53.902;9.118;2023-02-11T03:24:05;102731.0;;;22.91;24.5
41383;BME280;27971;53.902;9.118;2023-02-11T03:26:10;102730.0;;;22.86;24.5
41383;BME280;27971;53.902;9.118;2023-02-11T03:28:12;102732.0;;;22.82;24.55
41383;BME280;27971;53.902;9.118;2023-02-11T03:30:13;102738.00000000001;;;22.76;24.68
41383;BME280;27971;53.902;9.118;2023-02-11T03:32:17;102735.99999999999;;;22.82;24.62
41383;BME280;27971;53.902;9.118;2023-02-11T03:34:20;102734.99999999999;;;22.87;24.61
41383;BME280;27971;53.902;9.118;2023-02-11T03:36:23;102734.99999999999;;;22.93;24.55
41383;BME280;27971;53.902;9.118;2023-02-11T03:38:25;102741.00000000001;;;22.88;24.56
41383;BME280;27971;53.902;9.118;2023-02-11T03:40:26;102742.0;;;22.9;24.63
41383;BME280;27971;53.902;9.118;2023-02-11T03:42:31;102749.0;;;22.85;24.55
41383;BME280;27971;53.902;9.118;2023-02-11T03:44:33;102755.0;;;22.86;24.55
41383;BME280;27971;53.902;9.118;2023-02-11T03:46:33;102755.0;;;22.86;24.64
41383;BME280;27971;53.902;9.118;2023-02-11T03:48:38;102756.0;;;22.88;24.56
41383;BME280;27971;53.902;9.118;2023-02-11T03:50:38;102758.0;;;22.84;24.49
41383;BME280;27971;53.902;9.118;2023-02-11T03:52:40;102756.0;;;22.94;24.48
41383;BME280;27971;53.902;9.118;2023-02-11T03:54:42;102754.0;;;22.8;24.54
41383;BME280;27971;53.902;9.118;2023-02-11T03:56:48;102755.0;;;22.78;24.49
41383;BME280;27971;53.902;9.118;2023-02-11T03:58:47;102753.0;;;22.84;24.45
41383;BME280;27971;53.902;9.118;2023-02-11T04:00:50;102753.0;;;22.84;24.51
41383;BME280;27971;53.902;9.118;2023-02-11T04:02:53;102758.99999999999;;;22.81;24.51
41383;BME280;27971;53.902;9.118;2023-02-11T04:04:56;102760.99999999999;;;22.59;24.56
41383;BME280;27971;53.902;9.118;2023-02-11T04:06:58;102756.0;;;22.68;24.49
41383;BME280;27971;53.902;9.118;2023-02-11T04:09:01;102750.0;;;22.76;24.5
41383;BME280;27971;53.902;9.118;2023-02-11T04:11:04;102747.0;;;22.77;24.5
41383;BME280;27971;53.902;9.118;2023-02-11T04:13:07;102746.0;;;22.79;24.62
41383;BME280;27971;53.902;9.118;2023-02-11T04:15:09;102750.0;;;22.86;24.5
41383;BME280;27971;53.902;9.118;2023-02-11T04:17:12;102752.0;;;22.71;24.67
41383;BME280;27971;53.902;9.118;2023-02-11T04:19:14;102746.0;;;22.78;24.59
41383;BME280;27971;53.902;9.118;2023-02-11T04:21:16;102740.00000000001;;;22.8;24.45
41383;BME280;27971;53.902;9.118;2023-02-11T04:23:19;102740.00000000001;;;22.89;24.46
41383;BME280;27971;53.902;9.118;2023-02-11T04:25:21;102743.0;;;22.92;24.45
41383;BME280;27971;53.902;9.118;2023-02-11T04:27:24;102741.00000000001;;;22.93;24.44
41383;BME280;27971;53.902;9.118;2023-02-11T04:29:26;102739.00000000001;;;23.05;24.29
41383;BME280;27971;53.902;9.118;2023-02-11T04:31:29;102741.00000000001;;;23.02;24.36
41383;BME280;27971;53.902;9.118;2023-02-11T04:33:31;102743.0;;;22.95;24.4
41383;BME280;27971;53.902;9.118;2023-02-11T04:35:34;102744.0;;;22.27;24.8
41383;BME280;27971;53.902;9.118;2023-02-11T04:37:36;102745.0;;;22.17;24.78
41383;BME280;27971;53.902;9.118;2023-02-11T04:39:39;102746.0;;;23.72;23.64
41383;BME280;27971;53.902;9.118;2023-02-11T04:41:42;102748.0;;;23.59;23.72
41383;BME280;27971;53.902;9.118;2023-02-11T04:43:44;102744.0;;;23.27;23.89
41383;BME280;27971;53.902;9.118;2023-02-11T04:45:47;102742.0;;;22.64;24.28
41383;BME280;27971;53.902;9.118;2023-02-11T04:47:49;102741.00000000001;;;23.58;23.65
41383;BME280;27971;53.902;9.118;2023-02-11T04:49:51;102741.00000000001;;;23.42;23.71
41383;BME280;27971;53.902;9.118;2023-02-11T04:51:55;102734.99999999999;;;23.64;23.55
41383;BME280;27971;53.902;9.118;2023-02-11T04:53:58;102735.99999999999;;;23.79;23.36
41383;BME280;27971;53.902;9.118;2023-02-11T04:56:00;102736.99999999999;;;23.96;23.27
41383;BME280;27971;53.902;9.118;2023-02-11T04:58:03;102739.00000000001;;;23.99;23.14
41383;BME280;27971;53.902;9.118;2023-02-11T05:00:06;102735.99999999999;;;23.99;23.14
41383;BME280;27971;53.902;9.118;2023-02-11T05:02:08;102733.0;;;23.88;23.22
41383;BME280;27971;53.902;9.118;2023-02-11T05:04:10;102731.0;;;23.77;23.21
41383;BME280;27971;53.902;9.118;2023-02-11T05:06:13;102733.99999999999;;;22.79;23.93
41383;BME280;27971;53.902;9.118;2023-02-11T05:08:16;102733.99999999999;;;21.17;25.21
41383;BME280;27971;53.902;9.118;2023-02-11T05:10:18;102729.0;;;21.41;25.16
41383;BME280;27971;53.902;9.118;2023-02-11T05:12:22;102727.0;;;20.78;25.67
41383;BME280;27971;53.902;9.118;2023-02-11T05:14:24;102726.0;;;20.64;25.87
41383;BME280;27971;53.902;9.118;2023-02-11T05:16:26;102720.0;;;21.52;25.2
41383;BME280;27971;53.902;9.118;2023-02-11T05:18:29;102722.0;;;21.47;25.16
41383;BME280;27971;53.902;9.118;2023-02-11T05:20:32;102723.0;;;21.82;24.91
41383;BME280;27971;53.902;9.118;2023-02-11T05:22:34;102719.0;;;22.02;24.61
41383;BME280;27971;53.902;9.118;2023-02-11T05:24:37;102714.00000000001;;;22.5;24.32
41383;BME280;27971;53.902;9.118;2023-02-11T05:26:40;102707.0;;;23.39;23.48
41383;BME280;27971;53.902;9.118;2023-02-11T05:28:43;102700.0;;;23.68;23.3
41383;BME280;27971;53.902;9.118;2023-02-11T05:30:45;102705.0;;;23.48;23.45
41383;BME280;27971;53.902;9.118;2023-02-11T05:32:48;102710.99999999999;;;23.28;23.58
41383;BME280;27971;53.902;9.118;2023-02-11T05:34:50;102716.00000000001;;;23.16;23.71
41383;BME280;27971;53.902;9.118;2023-02-11T05:36:53;102721.0;;;23.04;23.69
41383;BME280;27971;53.902;9.118;2023-02-11T05:38:56;102729.0;;;23.14;23.65
41383;BME280;27971;53.902;9.118;2023-02-11T05:40:59;102732.0;;;23.24;23.66
41383;BME280;27971;53.902;9.118;2023-02-11T05:43:01;102738.00000000001;;;23.1;23.78
41383;BME280;27971;53.902;9.118;2023-02-11T05:45:04;102742.0;;;23.31;23.67
41383;BME280;27971;53.902;9.118;2023-02-11T05:47:06;102744.0;;;23.38;23.59
41383;BME280;27971;53.902;9.118;2023-02-11T05:49:08;102748.0;;;23.27;23.69
41383;BME280;27971;53.902;9.118;2023-02-11T05:51:10;102749.0;;;23.21;23.78
41383;BME280;27971;53.902;9.118;2023-02-11T05:53:14;102745.0;;;23.24;23.78
41383;BME280;27971;53.902;9.118;2023-02-11T05:55:16;102743.0;;;23.23;23.79
41383;BME280;27971;53.902;9.118;2023-02-11T05:57:19;102741.00000000001;;;23.16;23.72
41383;BME280;27971;53.902;9.118;2023-02-11T05:59:21;102740.00000000001;;;23.12;23.81
41383;BME280;27971;53.902;9.118;2023-02-11T06:01:24;102742.0;;;23.16;23.76
41383;BME280;27971;53.902;9.118;2023-02-11T06:03:26;102746.0;;;23.14;23.77
41383;BME280;27971;53.902;9.118;2023-02-11T06:05:29;102744.0;;;23.09;23.82
41383;BME280;27971;53.902;9.118;2023-02-11T06:07:32;102739.00000000001;;;23.77;23.28
41383;BME280;27971;53.902;9.118;2023-02-11T06:09:35;102739.00000000001;;;24.23;22.9
41383;BME280;27971;53.902;9.118;2023-02-11T06:11:37;102739.00000000001;;;24.26;22.85
41383;BME280;27971;53.902;9.118;2023-02-11T06:13:40;102739.00000000001;;;24.65;22.51
41383;BME280;27971;53.902;9.118;2023-02-11T06:15:43;102740.00000000001;;;24.73;22.24
41383;BME280;27971;53.902;9.118;2023-02-11T06:17:45;102736.99999999999;;;24.97;21.94
41383;BME280;27971;53.902;9.118;2023-02-11T06:19:48;102744.0;;;25.18;21.72
41383;BME280;27971;53.902;9.118;2023-02-11T06:21:50;102747.0;;;25.49;21.48
41383;BME280;27971;53.902;9.118;2023-02-11T06:23:53;102747.0;;;25.86;21.09
41383;BME280;27971;53.902;9.118;2023-02-11T06:26:01;102752.0;;;26.17;20.78
41383;BME280;27971;53.902;9.118;2023-02-11T06:27:58;102755.0;;;26.36;20.56
41383;BME280;27971;53.902;9.118;2023-02-11T06:30:00;102752.0;;;26.51;20.37
41383;BME280;27971;53.902;9.118;2023-02-11T06:32:03;102748.0;;;26.66;20.24
41383;BME280;27971;53.902;9.118;2023-02-11T06:34:06;102747.0;;;26.89;20.06
41383;BME280;27971;53.902;9.118;2023-02-11T06:36:14;102748.0;;;27.07;19.92
41383;BME280;27971;53.902;9.118;2023-02-11T06:38:12;102747.0;;;27.17;19.78
41383;BME280;27971;53.902;9.118;2023-02-11T06:40:15;102746.0;;;27.21;19.63
41383;BME280;27971;53.902;9.118;2023-02-11T06:42:17;102746.0;;;27.25;19.54
41383;BME280;27971;53.902;9.118;2023-02-11T06:44:20;102747.0;;;26.22;20.12
41383;BME280;27971;53.902;9.118;2023-02-11T06:46:23;102751.0;;;25.76;20.44
41383;BME280;27971;53.902;9.118;2023-02-11T06:48:25;102751.0;;;27.0;19.61
41383;BME280;27971;53.902;9.118;2023-02-11T06:50:27;102750.0;;;27.3;19.41
41383;BME280;27971;53.902;9.118;2023-02-11T06:52:30;102749.0;;;27.46;19.29
41383;BME280;27971;53.902;9.118;2023-02-11T06:54:33;102746.0;;;27.03;19.48
41383;BME280;27971;53.902;9.118;2023-02-11T06:56:39;102747.0;;;26.59;19.75
41383;BME280;27971;53.902;9.118;2023-02-11T06:58:39;102749.0;;;26.64;19.75
41383;BME280;27971;53.902;9.118;2023-02-11T07:00:41;102750.0;;;27.01;19.52
41383;BME280;27971;53.902;9.118;2023-02-11T07:02:44;102749.0;;;27.53;19.23
41383;BME280;27971;53.902;9.118;2023-02-11T07:04:46;102746.0;;;27.54;19.26
41383;BME280;27971;53.902;9.118;2023-02-11T07:06:49;102741.00000000001;;;27.69;19.14
41383;BME280;27971;53.902;9.118;2023-02-11T07:08:51;102741.00000000001;;;27.72;19.08
41383;BME280;27971;53.902;9.118;2023-02-11T07:10:54;102741.00000000001;;;27.85;18.96
41383;BME280;27971;53.902;9.118;2023-02-11T07:12:56;102744.0;;;27.79;18.95
41383;BME280;27971;53.902;9.118;2023-02-11T07:14:59;102750.0;;;27.04;19.36
41383;BME280;27971;53.902;9.118;2023-02-11T07:17:02;102752.0;;;26.25;19.94
41383;BME280;27971;53.902;9.118;2023-02-11T07:19:04;102753.0;;;27.12;19.38
41383;BME280;27971;53.902;9.118;2023-02-11T07:21:08;102753.0;;;26.86;19.52
41383;BME280;27971;53.902;9.118;2023-02-11T07:23:10;102752.0;;;26.41;19.77
41383;BME280;27971;53.902;9.118;2023-02-11T07:25:13;102752.0;;;25.64;20.33
41383;BME280;27971;53.902;9.118;2023-02-11T07:27:15;102756.0;;;25.55;20.45
41383;BME280;27971;53.902;9.118;2023-02-11T07:29:18;102761.99999999999;;;25.38;20.69
41383;BME280;27971;53.902;9.118;2023-02-11T07:31:22;102771.0;;;25.75;20.46
41383;BME280;27971;53.902;9.118;2023-02-11T07:33:23;102772.0;;;26.7;19.85
41383;BME280;27971;53.902;9.118;2023-02-11T07:35:25;102768.0;;;26.99;19.6
41383;BME280;27971;53.902;9.118;2023-02-11T07:37:28;102768.0;;;27.59;19.21
41383;BME280;27971;53.902;9.118;2023-02-11T07:39:30;102772.0;;;27.3;19.32
41383;BME280;27971;53.902;9.118;2023-02-11T07:41:32;102774.0;;;27.54;19.13
41383;BME280;27971;53.902;9.118;2023-02-11T07:43:36;102776.0;;;26.42;19.56
41383;BME280;27971;53.902;9.118;2023-02-11T07:45:38;102783.99999999999;;;20.76;21.9
41383;BME280;27971;53.902;9.118;2023-02-11T07:47:40;102783.99999999999;;;16.35;23.85
41383;BME280;27971;53.902;9.118;2023-02-11T07:49:42;102781.0;;;20.59;20.96
41383;BME280;27971;53.902;9.118;2023-02-11T07:51:45;102781.0;;;22.36;19.9
41383;BME280;27971;53.902;9.118;2023-02-11T07:53:48;102786.99999999999;;;23.89;18.89
41383;BME280;27971;53.902;9.118;2023-02-11T07:55:49;102794.0;;;24.66;18.31
41383;BME280;27971;53.902;9.118;2023-02-11T07:57:52;102804.0;;;25.46;17.85
41383;BME280;27971;53.902;9.118;2023-02-11T07:59:54;102816.00000000001;;;26.21;17.37
41383;BME280;27971;53.902;9.118;2023-02-11T08:01:57;102822.0;;;26.59;17.07
41383;BME280;27971;53.902;9.118;2023-02-11T08:04:00;102826.0;;;26.75;16.98
41383;BME280;27971;53.902;9.118;2023-02-11T08:06:03;102831.0;;;26.32;17.3
41383;BME280;27971;53.902;9.118;2023-02-11T08:08:05;102836.99999999999;;;26.17;17.56
41383;BME280;27971;53.902;9.118;2023-02-11T08:10:07;102836.99999999999;;;26.84;17.16
41383;BME280;27971;53.902;9.118;2023-02-11T08:12:10;102840.00000000001;;;26.51;17.34
41383;BME280;27971;53.902;9.118;2023-02-11T08:14:12;102842.0;;;26.87;17.18
41383;BME280;27971;53.902;9.118;2023-02-11T08:16:20;102843.0;;;26.19;17.66
41383;BME280;27971;53.902;9.118;2023-02-11T08:18:18;102840.00000000001;;;26.38;17.78
41383;BME280;27971;53.902;9.118;2023-02-11T08:20:20;102840.00000000001;;;26.74;17.55
41383;BME280;27971;53.902;9.118;2023-02-11T08:22:23;102843.0;;;27.12;17.5
41383;BME280;27971;53.902;9.118;2023-02-11T08:24:25;102848.0;;;27.07;17.54
41383;BME280;27971;53.902;9.118;2023-02-11T08:26:29;102849.0;;;27.32;17.43
41383;BME280;27971;53.902;9.118;2023-02-11T08:28:33;102851.0;;;27.11;17.72
41383;BME280;27971;53.902;9.118;2023-02-11T08:30:33;102850.0;;;27.22;17.81
41383;BME280;27971;53.902;9.118;2023-02-11T08:32:36;102853.0;;;27.12;17.96
41383;BME280;27971;53.902;9.118;2023-02-11T08:34:39;102854.0;;;27.46;17.91
41383;BME280;27971;53.902;9.118;2023-02-11T08:36:42;102856.0;;;27.42;17.91
41383;BME280;27971;53.902;9.118;2023-02-11T08:38:44;102858.0;;;27.36;17.95
41383;BME280;27971;53.902;9.118;2023-02-11T08:40:47;102858.99999999999;;;27.67;17.9
41383;BME280;27971;53.902;9.118;2023-02-11T08:42:49;102859.99999999999;;;27.63;18.01
41383;BME280;27971;53.902;9.118;2023-02-11T08:44:52;102861.99999999999;;;27.61;18.11
41383;BME280;27971;53.902;9.118;2023-02-11T08:46:54;102868.0;;;27.29;18.38
41383;BME280;27971;53.902;9.118;2023-02-11T08:48:57;102871.0;;;27.27;18.5
41383;BME280;27971;53.902;9.118;2023-02-11T08:50:59;102869.0;;;27.45;18.38
41383;BME280;27971;53.902;9.118;2023-02-11T08:53:02;102867.0;;;27.64;18.37
41383;BME280;27971;53.902;9.118;2023-02-11T08:55:06;102861.99999999999;;;27.34;18.61
41383;BME280;27971;53.902;9.118;2023-02-11T08:57:08;102864.00000000001;;;26.51;19.17
41383;BME280;27971;53.902;9.118;2023-02-11T08:59:12;102863.00000000001;;;26.33;19.37
41383;BME280;27971;53.902;9.118;2023-02-11T09:01:16;102863.00000000001;;;26.71;19.17
41383;BME280;27971;53.902;9.118;2023-02-11T09:03:16;102865.00000000001;;;26.03;19.66
41383;BME280;27971;53.902;9.118;2023-02-11T09:05:19;102870.0;;;25.74;19.91
41383;BME280;27971;53.902;9.118;2023-02-11T09:07:22;102877.0;;;25.38;20.29
41383;BME280;27971;53.902;9.118;2023-02-11T09:09:24;102879.0;;;25.55;20.11
41383;BME280;27971;53.902;9.118;2023-02-11T09:11:29;102880.0;;;25.09;20.46
41383;BME280;27971;53.902;9.118;2023-02-11T09:13:29;102879.0;;;25.56;20.26
41383;BME280;27971;53.902;9.118;2023-02-11T09:15:32;102882.0;;;26.92;19.39
41383;BME280;27971;53.902;9.118;2023-02-11T09:17:34;102891.00000000001;;;25.95;20.02
41383;BME280;27971;53.902;9.118;2023-02-11T09:19:36;102896.0;;;25.79;20.19
41383;BME280;27971;53.902;9.118;2023-02-11T09:21:39;102899.0;;;25.65;20.34
41383;BME280;27971;53.902;9.118;2023-02-11T09:23:42;102900.0;;;26.25;20.01
41383;BME280;27971;53.902;9.118;2023-02-11T09:25:44;102903.0;;;27.34;19.29
41383;BME280;27971;53.902;9.118;2023-02-11T09:27:47;102911.99999999999;;;26.53;19.86
41383;BME280;27971;53.902;9.118;2023-02-11T09:29:49;102918.0;;;25.77;20.48
41383;BME280;27971;53.902;9.118;2023-02-11T09:31:51;102920.0;;;26.97;19.82
41383;BME280;27971;53.902;9.118;2023-02-11T09:33:56;102924.0;;;26.54;20.18
41383;BME280;27971;53.902;9.118;2023-02-11T09:35:59;102925.0;;;25.57;20.79
41383;BME280;27971;53.902;9.118;2023-02-11T09:37:59;102924.0;;;26.28;20.53
41383;BME280;27971;53.902;9.118;2023-02-11T09:40:02;102924.0;;;26.96;20.21
41383;BME280;27971;53.902;9.118;2023-02-11T09:42:16;102921.0;;;27.56;19.78
41383;BME280;27971;53.902;9.118;2023-02-11T09:44:17;102924.0;;;26.72;20.33
41383;BME280;27971;53.902;9.118;2023-02-11T09:46:14;102923.0;;;26.6;20.41
41383;BME280;27971;53.902;9.118;2023-02-11T09:48:16;102923.0;;;25.65;21.06
41383;BME280;27971;53.902;9.118;2023-02-11T09:50:22;102926.0;;;25.67;21.01
41383;BME280;27971;53.902;9.118;2023-02-11T09:52:29;102927.0;;;25.63;21.33
41383;BME280;27971;53.902;9.118;2023-02-11T09:54:27;102924.0;;;25.72;21.29
41383;BME280;27971;53.902;9.118;2023-02-11T09:56:27;102919.0;;;25.53;21.51
41383;BME280;27971;53.902;9.118;2023-02-11T09:58:30;102915.00000000001;;;25.3;21.71
41383;BME280;27971;53.902;9.118;2023-02-11T10:00:36;102921.0;;;25.54;21.55
41383;BME280;27971;53.902;9.118;2023-02-11T10:02:44;102928.0;;;25.43;21.75
41383;BME280;27971;53.902;9.118;2023-02-11T10:04:47;102938.00000000001;;;25.92;21.54
41383;BME280;27971;53.902;9.118;2023-02-11T10:06:42;102950.0;;;25.88;21.67
41383;BME280;27971;53.902;9.118;2023-02-11T10:08:50;102951.0;;;25.82;21.69
41383;BME280;27971;53.902;9.118;2023-02-11T10:10:50;102953.0;;;25.45;22.28
41383;BME280;27971;53.902;9.118;2023-02-11T10:13:00;102951.0;;;25.24;22.41
41383;BME280;27971;53.902;9.118;2023-02-11T10:15:07;102944.0;;;24.64;22.84
41383;BME280;27971;53.902;9.118;2023-02-11T10:17:01;102938.00000000001;;;21.88;25.05
41383;BME280;27971;53.902;9.118;2023-02-11T10:19:07;102934.99999999999;;;22.6;24.58
41383;BME280;27971;53.902;9.118;2023-02-11T10:21:07;102934.99999999999;;;23.59;23.93
41383;BME280;27971;53.902;9.118;2023-02-11T10:23:08;102936.99999999999;;;22.16;24.77
41383;BME280;27971;53.902;9.118;2023-02-11T10:25:16;102939.00000000001;;;23.44;23.69
41383;BME280;27971;53.902;9.118;2023-02-11T10:27:15;102938.00000000001;;;25.48;22.22
41383;BME280;27971;53.902;9.118;2023-02-11T10:29:20;102941.00000000001;;;25.08;22.41
41383;BME280;27971;53.902;9.118;2023-02-11T10:31:16;102952.0;;;25.07;22.33
41383;BME280;27971;53.902;9.118;2023-02-11T10:33:22;102959.99999999999;;;25.2;22.15